sensor_id;sensor_type;location;lat;lon;timestamp;P1;durP1;ratioP1;P2;durP2;ratioP2
16101;SDS011;56411;52.964;10.540;2022-11-18T00:00:45;26.50;;;13.43;;
16101;SDS011;56411;52.964;10.540;2022-11-18T00:03:12;27.00;;;13.80;;
16101;SDS011;56411;52.964;10.540;2022-11-18T00:05:40;26.13;;;13.70;;
16101;SDS011;56411;52.964;10.540;2022-11-18T00:08:07;26.80;;;13.20;;
16101;SDS011;56411;52.964;10.540;2022-11-18T00:10:35;27.00;;;13.93;;
16101;SDS011;56411;52.964;10.540;2022-11-18T00:13:04;26.60;;;13.93;;
16101;SDS011;56411;52.964;10.540;2022-11-18T00:15:48;27.67;;;14.20;;
16101;SDS011;56411;52.964;10.540;2022-11-18T00:18:25;29.50;;;15.13;;
16101;SDS011;56411;52.964;10.540;2022-11-18T00:20:52;30.93;;;15.53;;
16101;SDS011;56411;52.964;10.540;2022-11-18T00:23:19;30.10;;;15.70;;
16101;SDS011;56411;52.964;10.540;2022-11-18T00:25:46;32.03;;;15.97;;
16101;SDS011;56411;52.964;10.540;2022-11-18T00:28:15;33.23;;;16.47;;
16101;SDS011;56411;52.964;10.540;2022-11-18T00:30:42;31.87;;;16.17;;
16101;SDS011;56411;52.964;10.540;2022-11-18T00:33:09;34.17;;;16.40;;
16101;SDS011;56411;52.964;10.540;2022-11-18T00:35:35;31.33;;;15.80;;
16101;SDS011;56411;52.964;10.540;2022-11-18T00:38:02;32.03;;;16.07;;
16101;SDS011;56411;52.964;10.540;2022-11-18T00:40:30;31.87;;;16.43;;
16101;SDS011;56411;52.964;10.540;2022-11-18T00:42:57;32.63;;;16.37;;
16101;SDS011;56411;52.964;10.540;2022-11-18T00:45:24;32.47;;;16.10;;
16101;SDS011;56411;52.964;10.540;2022-11-18T00:47:51;32.10;;;15.50;;
16101;SDS011;56411;52.964;10.540;2022-11-18T00:50:18;30.23;;;15.23;;
16101;SDS011;56411;52.964;10.540;2022-11-18T00:52:46;31.40;;;15.33;;
16101;SDS011;56411;52.964;10.540;2022-11-18T00:55:13;28.37;;;15.03;;
16101;SDS011;56411;52.964;10.540;2022-11-18T00:57:40;29.97;;;15.77;;
16101;SDS011;56411;52.964;10.540;2022-11-18T01:00:08;30.93;;;16.03;;
16101;SDS011;56411;52.964;10.540;2022-11-18T01:02:40;30.13;;;14.90;;
16101;SDS011;56411;52.964;10.540;2022-11-18T01:05:07;29.00;;;14.80;;
16101;SDS011;56411;52.964;10.540;2022-11-18T01:07:35;29.40;;;14.33;;
16101;SDS011;56411;52.964;10.540;2022-11-18T01:10:02;31.03;;;16.17;;
16101;SDS011;56411;52.964;10.540;2022-11-18T01:12:29;29.43;;;15.13;;
16101;SDS011;56411;52.964;10.540;2022-11-18T01:15:14;29.87;;;14.37;;
16101;SDS011;56411;52.964;10.540;2022-11-18T01:17:42;30.63;;;15.43;;
16101;SDS011;56411;52.964;10.540;2022-11-18T01:20:10;29.67;;;15.57;;
16101;SDS011;56411;52.964;10.540;2022-11-18T01:22:37;29.30;;;14.77;;
16101;SDS011;56411;52.964;10.540;2022-11-18T01:25:04;28.50;;;14.83;;
16101;SDS011;56411;52.964;10.540;2022-11-18T01:27:32;29.77;;;15.13;;
16101;SDS011;56411;52.964;10.540;2022-11-18T01:29:59;29.80;;;15.50;;
16101;SDS011;56411;52.964;10.540;2022-11-18T01:32:27;30.77;;;16.23;;
16101;SDS011;56411;52.964;10.540;2022-11-18T01:34:55;30.77;;;15.43;;
16101;SDS011;56411;52.964;10.540;2022-11-18T01:37:22;29.33;;;15.17;;
16101;SDS011;56411;52.964;10.540;2022-11-18T01:39:49;29.83;;;15.07;;
16101;SDS011;56411;52.964;10.540;2022-11-18T01:42:16;29.93;;;15.50;;
16101;SDS011;56411;52.964;10.540;2022-11-18T01:44:52;33.93;;;14.70;;
16101;SDS011;56411;52.964;10.540;2022-11-18T01:47:24;29.40;;;15.23;;
16101;SDS011;56411;52.964;10.540;2022-11-18T01:49:56;32.37;;;16.83;;
16101;SDS011;56411;52.964;10.540;2022-11-18T01:52:25;31.87;;;16.10;;
16101;SDS011;56411;52.964;10.540;2022-11-18T01:54:53;31.23;;;15.40;;
16101;SDS011;56411;52.964;10.540;2022-11-18T01:57:24;30.97;;;15.53;;
16101;SDS011;56411;52.964;10.540;2022-11-18T01:59:56;32.63;;;16.53;;
16101;SDS011;56411;52.964;10.540;2022-11-18T02:02:26;30.83;;;15.70;;
16101;SDS011;56411;52.964;10.540;2022-11-18T02:04:59;28.63;;;15.43;;
16101;SDS011;56411;52.964;10.540;2022-11-18T02:07:28;30.50;;;15.77;;
16101;SDS011;56411;52.964;10.540;2022-11-18T02:09:55;29.60;;;15.63;;
16101;SDS011;56411;52.964;10.540;2022-11-18T02:12:24;30.43;;;15.33;;
16101;SDS011;56411;52.964;10.540;2022-11-18T02:14:51;31.20;;;15.30;;
16101;SDS011;56411;52.964;10.540;2022-11-18T02:17:22;30.37;;;15.57;;
16101;SDS011;56411;52.964;10.540;2022-11-18T02:26:15;28.17;;;14.57;;
16101;SDS011;56411;52.964;10.540;2022-11-18T02:29:07;30.90;;;15.17;;
16101;SDS011;56411;52.964;10.540;2022-11-18T02:31:39;30.50;;;14.83;;
16101;SDS011;56411;52.964;10.540;2022-11-18T02:34:14;26.87;;;13.50;;
16101;SDS011;56411;52.964;10.540;2022-11-18T02:36:48;26.90;;;14.03;;
16101;SDS011;56411;52.964;10.540;2022-11-18T02:39:23;28.13;;;14.70;;
16101;SDS011;56411;52.964;10.540;2022-11-18T02:41:56;27.60;;;13.97;;
16101;SDS011;56411;52.964;10.540;2022-11-18T02:44:28;25.57;;;12.67;;
16101;SDS011;56411;52.964;10.540;2022-11-18T02:46:58;26.17;;;13.37;;
16101;SDS011;56411;52.964;10.540;2022-11-18T02:49:30;26.20;;;12.87;;
16101;SDS011;56411;52.964;10.540;2022-11-18T02:52:02;27.37;;;13.73;;
16101;SDS011;56411;52.964;10.540;2022-11-18T02:54:31;30.13;;;14.90;;
16101;SDS011;56411;52.964;10.540;2022-11-18T02:57:01;31.03;;;14.40;;
16101;SDS011;56411;52.964;10.540;2022-11-18T02:59:31;28.10;;;13.80;;
16101;SDS011;56411;52.964;10.540;2022-11-18T03:01:58;28.53;;;13.70;;
16101;SDS011;56411;52.964;10.540;2022-11-18T03:04:25;28.87;;;14.50;;
16101;SDS011;56411;52.964;10.540;2022-11-18T03:06:55;28.67;;;13.67;;
16101;SDS011;56411;52.964;10.540;2022-11-18T03:09:28;26.37;;;13.53;;
16101;SDS011;56411;52.964;10.540;2022-11-18T03:12:02;29.97;;;14.20;;
16101;SDS011;56411;52.964;10.540;2022-11-18T03:14:39;28.77;;;14.43;;
16101;SDS011;56411;52.964;10.540;2022-11-18T03:17:12;28.57;;;14.60;;
16101;SDS011;56411;52.964;10.540;2022-11-18T03:19:52;27.83;;;14.17;;
16101;SDS011;56411;52.964;10.540;2022-11-18T03:22:30;29.30;;;13.30;;
16101;SDS011;56411;52.964;10.540;2022-11-18T03:25:01;29.67;;;15.17;;
16101;SDS011;56411;52.964;10.540;2022-11-18T03:27:33;28.83;;;14.00;;
16101;SDS011;56411;52.964;10.540;2022-11-18T03:30:06;29.23;;;14.40;;
16101;SDS011;56411;52.964;10.540;2022-11-18T03:32:36;30.57;;;14.87;;
16101;SDS011;56411;52.964;10.540;2022-11-18T03:35:07;30.00;;;14.37;;
16101;SDS011;56411;52.964;10.540;2022-11-18T03:37:38;31.63;;;15.20;;
16101;SDS011;56411;52.964;10.540;2022-11-18T03:40:10;28.90;;;14.20;;
16101;SDS011;56411;52.964;10.540;2022-11-18T03:42:45;31.97;;;15.30;;
16101;SDS011;56411;52.964;10.540;2022-11-18T03:45:18;28.83;;;13.77;;
16101;SDS011;56411;52.964;10.540;2022-11-18T03:47:49;29.17;;;15.13;;
16101;SDS011;56411;52.964;10.540;2022-11-18T03:50:20;28.50;;;13.83;;
16101;SDS011;56411;52.964;10.540;2022-11-18T03:52:52;29.03;;;13.87;;
16101;SDS011;56411;52.964;10.540;2022-11-18T03:55:21;29.07;;;13.87;;
16101;SDS011;56411;52.964;10.540;2022-11-18T03:57:52;32.20;;;15.57;;
16101;SDS011;56411;52.964;10.540;2022-11-18T04:00:24;33.53;;;15.53;;
16101;SDS011;56411;52.964;10.540;2022-11-18T04:02:55;30.83;;;15.23;;
16101;SDS011;56411;52.964;10.540;2022-11-18T04:05:22;32.90;;;15.80;;
16101;SDS011;56411;52.964;10.540;2022-11-18T04:07:51;29.97;;;14.97;;
16101;SDS011;56411;52.964;10.540;2022-11-18T04:10:22;29.33;;;15.23;;
16101;SDS011;56411;52.964;10.540;2022-11-18T04:12:56;31.10;;;15.70;;
16101;SDS011;56411;52.964;10.540;2022-11-18T04:15:30;33.77;;;16.63;;
16101;SDS011;56411;52.964;10.540;2022-11-18T04:17:57;31.70;;;15.27;;
16101;SDS011;56411;52.964;10.540;2022-11-18T04:20:25;31.60;;;15.43;;
16101;SDS011;56411;52.964;10.540;2022-11-18T04:22:52;33.80;;;16.60;;
16101;SDS011;56411;52.964;10.540;2022-11-18T04:25:20;32.77;;;16.00;;
16101;SDS011;56411;52.964;10.540;2022-11-18T04:27:48;35.77;;;16.60;;
16101;SDS011;56411;52.964;10.540;2022-11-18T04:30:15;33.97;;;16.60;;
16101;SDS011;56411;52.964;10.540;2022-11-18T04:32:44;30.60;;;15.13;;
16101;SDS011;56411;52.964;10.540;2022-11-18T04:35:11;33.57;;;17.00;;
16101;SDS011;56411;52.964;10.540;2022-11-18T04:37:38;33.80;;;16.77;;
16101;SDS011;56411;52.964;10.540;2022-11-18T04:40:06;36.70;;;17.77;;
16101;SDS011;56411;52.964;10.540;2022-11-18T04:42:34;32.83;;;16.70;;
16101;SDS011;56411;52.964;10.540;2022-11-18T04:45:01;32.97;;;16.70;;
16101;SDS011;56411;52.964;10.540;2022-11-18T04:47:28;35.23;;;18.10;;
16101;SDS011;56411;52.964;10.540;2022-11-18T04:49:57;37.40;;;17.77;;
16101;SDS011;56411;52.964;10.540;2022-11-18T04:52:24;34.97;;;16.83;;
16101;SDS011;56411;52.964;10.540;2022-11-18T04:54:51;37.20;;;18.17;;
16101;SDS011;56411;52.964;10.540;2022-11-18T04:57:18;36.30;;;17.77;;
16101;SDS011;56411;52.964;10.540;2022-11-18T04:59:45;37.93;;;18.33;;
16101;SDS011;56411;52.964;10.540;2022-11-18T05:02:12;35.43;;;17.53;;
16101;SDS011;56411;52.964;10.540;2022-11-18T05:04:39;37.33;;;18.30;;
16101;SDS011;56411;52.964;10.540;2022-11-18T05:07:12;38.40;;;19.50;;
16101;SDS011;56411;52.964;10.540;2022-11-18T05:09:40;36.37;;;18.37;;
16101;SDS011;56411;52.964;10.540;2022-11-18T05:12:10;40.10;;;19.83;;
16101;SDS011;56411;52.964;10.540;2022-11-18T05:14:55;42.97;;;20.10;;
16101;SDS011;56411;52.964;10.540;2022-11-18T05:17:22;39.10;;;20.63;;
16101;SDS011;56411;52.964;10.540;2022-11-18T05:19:49;42.23;;;21.17;;
16101;SDS011;56411;52.964;10.540;2022-11-18T05:22:18;39.17;;;20.60;;
16101;SDS011;56411;52.964;10.540;2022-11-18T05:24:45;42.40;;;21.83;;
16101;SDS011;56411;52.964;10.540;2022-11-18T05:27:12;41.27;;;20.50;;
16101;SDS011;56411;52.964;10.540;2022-11-18T05:29:40;43.20;;;20.40;;
16101;SDS011;56411;52.964;10.540;2022-11-18T05:32:07;42.20;;;21.23;;
16101;SDS011;56411;52.964;10.540;2022-11-18T05:34:34;41.17;;;20.70;;
16101;SDS011;56411;52.964;10.540;2022-11-18T05:37:01;39.57;;;19.87;;
16101;SDS011;56411;52.964;10.540;2022-11-18T05:39:30;43.00;;;20.73;;
16101;SDS011;56411;52.964;10.540;2022-11-18T05:41:58;41.97;;;19.87;;
16101;SDS011;56411;52.964;10.540;2022-11-18T05:44:42;41.90;;;21.43;;
16101;SDS011;56411;52.964;10.540;2022-11-18T05:47:10;43.93;;;20.67;;
16101;SDS011;56411;52.964;10.540;2022-11-18T05:49:37;42.43;;;21.13;;
16101;SDS011;56411;52.964;10.540;2022-11-18T05:52:04;43.40;;;21.47;;
16101;SDS011;56411;52.964;10.540;2022-11-18T05:54:33;43.87;;;21.80;;
16101;SDS011;56411;52.964;10.540;2022-11-18T05:57:00;43.73;;;21.93;;
16101;SDS011;56411;52.964;10.540;2022-11-18T05:59:27;41.90;;;21.80;;
16101;SDS011;56411;52.964;10.540;2022-11-18T06:01:55;43.43;;;21.63;;
16101;SDS011;56411;52.964;10.540;2022-11-18T06:04:26;43.37;;;21.57;;
16101;SDS011;56411;52.964;10.540;2022-11-18T06:06:56;42.77;;;20.67;;
16101;SDS011;56411;52.964;10.540;2022-11-18T06:09:27;47.47;;;22.47;;
16101;SDS011;56411;52.964;10.540;2022-11-18T06:12:02;47.57;;;23.07;;
16101;SDS011;56411;52.964;10.540;2022-11-18T06:14:31;42.80;;;21.63;;
16101;SDS011;56411;52.964;10.540;2022-11-18T06:17:03;45.00;;;22.03;;
16101;SDS011;56411;52.964;10.540;2022-11-18T06:19:34;44.97;;;22.77;;
16101;SDS011;56411;52.964;10.540;2022-11-18T06:22:01;44.33;;;22.23;;
16101;SDS011;56411;52.964;10.540;2022-11-18T06:24:29;41.57;;;21.50;;
16101;SDS011;56411;52.964;10.540;2022-11-18T06:26:57;46.43;;;22.90;;
16101;SDS011;56411;52.964;10.540;2022-11-18T06:29:26;46.57;;;22.77;;
16101;SDS011;56411;52.964;10.540;2022-11-18T06:31:53;44.70;;;22.17;;
16101;SDS011;56411;52.964;10.540;2022-11-18T06:34:21;42.50;;;21.80;;
16101;SDS011;56411;52.964;10.540;2022-11-18T06:36:48;41.20;;;20.37;;
16101;SDS011;56411;52.964;10.540;2022-11-18T06:39:15;44.00;;;21.13;;
16101;SDS011;56411;52.964;10.540;2022-11-18T06:41:42;43.90;;;21.37;;
16101;SDS011;56411;52.964;10.540;2022-11-18T06:44:10;43.10;;;21.73;;
16101;SDS011;56411;52.964;10.540;2022-11-18T06:46:38;44.30;;;20.43;;
16101;SDS011;56411;52.964;10.540;2022-11-18T06:49:23;42.07;;;20.80;;
16101;SDS011;56411;52.964;10.540;2022-11-18T06:51:51;41.53;;;21.53;;
16101;SDS011;56411;52.964;10.540;2022-11-18T06:54:18;42.97;;;21.73;;
16101;SDS011;56411;52.964;10.540;2022-11-18T06:56:46;42.07;;;20.80;;
16101;SDS011;56411;52.964;10.540;2022-11-18T06:59:13;41.50;;;20.90;;
16101;SDS011;56411;52.964;10.540;2022-11-18T07:01:47;43.40;;;21.37;;
16101;SDS011;56411;52.964;10.540;2022-11-18T07:04:15;42.60;;;21.70;;
16101;SDS011;56411;52.964;10.540;2022-11-18T07:06:42;41.40;;;20.70;;
16101;SDS011;56411;52.964;10.540;2022-11-18T07:09:09;43.30;;;21.27;;
16101;SDS011;56411;52.964;10.540;2022-11-18T07:11:36;42.90;;;21.03;;
16101;SDS011;56411;52.964;10.540;2022-11-18T07:14:05;43.07;;;21.23;;
16101;SDS011;56411;52.964;10.540;2022-11-18T07:16:32;40.77;;;21.40;;
16101;SDS011;56411;52.964;10.540;2022-11-18T07:19:06;39.67;;;20.67;;
16101;SDS011;56411;52.964;10.540;2022-11-18T07:21:34;40.40;;;20.53;;
16101;SDS011;56411;52.964;10.540;2022-11-18T07:24:03;39.43;;;20.03;;
16101;SDS011;56411;52.964;10.540;2022-11-18T07:26:32;41.40;;;20.27;;
16101;SDS011;56411;52.964;10.540;2022-11-18T07:28:59;38.50;;;19.27;;
16101;SDS011;56411;52.964;10.540;2022-11-18T07:31:26;36.27;;;18.20;;
16101;SDS011;56411;52.964;10.540;2022-11-18T07:33:53;37.83;;;18.83;;
16101;SDS011;56411;52.964;10.540;2022-11-18T07:36:22;34.10;;;18.73;;
16101;SDS011;56411;52.964;10.540;2022-11-18T07:38:50;34.63;;;17.73;;
16101;SDS011;56411;52.964;10.540;2022-11-18T07:41:18;32.87;;;18.10;;
16101;SDS011;56411;52.964;10.540;2022-11-18T07:43:47;35.73;;;18.33;;
16101;SDS011;56411;52.964;10.540;2022-11-18T07:46:16;34.87;;;17.97;;
16101;SDS011;56411;52.964;10.540;2022-11-18T07:48:45;32.17;;;17.10;;
16101;SDS011;56411;52.964;10.540;2022-11-18T07:51:14;33.80;;;17.73;;
16101;SDS011;56411;52.964;10.540;2022-11-18T07:53:44;36.07;;;18.53;;
16101;SDS011;56411;52.964;10.540;2022-11-18T07:56:11;32.20;;;16.50;;
16101;SDS011;56411;52.964;10.540;2022-11-18T07:58:39;33.07;;;17.60;;
16101;SDS011;56411;52.964;10.540;2022-11-18T08:01:06;31.57;;;16.37;;
16101;SDS011;56411;52.964;10.540;2022-11-18T08:03:34;31.23;;;15.90;;
16101;SDS011;56411;52.964;10.540;2022-11-18T08:06:03;31.63;;;17.60;;
16101;SDS011;56411;52.964;10.540;2022-11-18T08:08:32;32.03;;;17.53;;
16101;SDS011;56411;52.964;10.540;2022-11-18T08:11:02;32.83;;;16.90;;
16101;SDS011;56411;52.964;10.540;2022-11-18T08:13:30;32.30;;;17.50;;
16101;SDS011;56411;52.964;10.540;2022-11-18T08:15:57;34.70;;;18.07;;
16101;SDS011;56411;52.964;10.540;2022-11-18T08:18:24;35.87;;;19.30;;
16101;SDS011;56411;52.964;10.540;2022-11-18T08:20:53;38.23;;;20.77;;
16101;SDS011;56411;52.964;10.540;2022-11-18T08:23:21;36.10;;;20.40;;
16101;SDS011;56411;52.964;10.540;2022-11-18T08:25:48;35.33;;;19.27;;
16101;SDS011;56411;52.964;10.540;2022-11-18T08:28:17;36.63;;;19.27;;
16101;SDS011;56411;52.964;10.540;2022-11-18T08:30:44;35.83;;;19.93;;
16101;SDS011;56411;52.964;10.540;2022-11-18T08:33:11;36.20;;;19.20;;
16101;SDS011;56411;52.964;10.540;2022-11-18T08:35:38;36.37;;;18.97;;
16101;SDS011;56411;52.964;10.540;2022-11-18T08:38:05;36.53;;;20.53;;
16101;SDS011;56411;52.964;10.540;2022-11-18T08:40:32;37.37;;;20.13;;
16101;SDS011;56411;52.964;10.540;2022-11-18T08:42:59;37.07;;;20.00;;
16101;SDS011;56411;52.964;10.540;2022-11-18T08:45:28;39.67;;;20.17;;
16101;SDS011;56411;52.964;10.540;2022-11-18T08:47:55;39.20;;;21.30;;
16101;SDS011;56411;52.964;10.540;2022-11-18T08:50:22;42.63;;;22.50;;
16101;SDS011;56411;52.964;10.540;2022-11-18T08:52:49;45.50;;;23.60;;
16101;SDS011;56411;52.964;10.540;2022-11-18T08:55:16;45.23;;;24.50;;
16101;SDS011;56411;52.964;10.540;2022-11-18T08:57:43;44.00;;;23.60;;
16101;SDS011;56411;52.964;10.540;2022-11-18T09:00:12;46.00;;;23.87;;
16101;SDS011;56411;52.964;10.540;2022-11-18T09:02:42;46.53;;;23.40;;
16101;SDS011;56411;52.964;10.540;2022-11-18T09:05:10;47.77;;;24.33;;
16101;SDS011;56411;52.964;10.540;2022-11-18T09:07:37;47.53;;;23.97;;
16101;SDS011;56411;52.964;10.540;2022-11-18T09:10:05;44.70;;;24.20;;
16101;SDS011;56411;52.964;10.540;2022-11-18T09:12:32;47.93;;;24.87;;
16101;SDS011;56411;52.964;10.540;2022-11-18T09:14:59;48.30;;;25.20;;
16101;SDS011;56411;52.964;10.540;2022-11-18T09:17:26;46.30;;;24.43;;
16101;SDS011;56411;52.964;10.540;2022-11-18T09:19:55;50.73;;;26.27;;
16101;SDS011;56411;52.964;10.540;2022-11-18T09:22:22;50.03;;;25.33;;
16101;SDS011;56411;52.964;10.540;2022-11-18T09:24:49;46.10;;;26.03;;
16101;SDS011;56411;52.964;10.540;2022-11-18T09:27:16;46.27;;;25.00;;
16101;SDS011;56411;52.964;10.540;2022-11-18T09:29:43;48.60;;;25.60;;
16101;SDS011;56411;52.964;10.540;2022-11-18T09:32:10;46.83;;;25.37;;
16101;SDS011;56411;52.964;10.540;2022-11-18T09:34:37;48.03;;;24.40;;
16101;SDS011;56411;52.964;10.540;2022-11-18T09:37:06;47.23;;;24.27;;
16101;SDS011;56411;52.964;10.540;2022-11-18T09:39:34;44.80;;;23.97;;
16101;SDS011;56411;52.964;10.540;2022-11-18T09:42:05;44.87;;;24.03;;
16101;SDS011;56411;52.964;10.540;2022-11-18T09:44:45;48.73;;;23.93;;
16101;SDS011;56411;52.964;10.540;2022-11-18T09:47:23;48.33;;;25.50;;
16101;SDS011;56411;52.964;10.540;2022-11-18T09:49:53;43.33;;;23.57;;
16101;SDS011;56411;52.964;10.540;2022-11-18T09:52:23;46.03;;;25.07;;
16101;SDS011;56411;52.964;10.540;2022-11-18T09:54:53;50.87;;;25.17;;
16101;SDS011;56411;52.964;10.540;2022-11-18T09:57:22;42.50;;;22.93;;
16101;SDS011;56411;52.964;10.540;2022-11-18T09:59:52;44.87;;;23.47;;
16101;SDS011;56411;52.964;10.540;2022-11-18T10:05:19;46.47;;;24.03;;
16101;SDS011;56411;52.964;10.540;2022-11-18T10:07:53;45.00;;;23.97;;
16101;SDS011;56411;52.964;10.540;2022-11-18T10:10:29;43.97;;;24.03;;
16101;SDS011;56411;52.964;10.540;2022-11-18T10:13:07;44.00;;;23.27;;
16101;SDS011;56411;52.964;10.540;2022-11-18T10:15:41;42.30;;;23.57;;
16101;SDS011;56411;52.964;10.540;2022-11-18T10:18:19;43.50;;;22.87;;
16101;SDS011;56411;52.964;10.540;2022-11-18T10:20:55;41.97;;;22.80;;
16101;SDS011;56411;52.964;10.540;2022-11-18T10:23:28;42.40;;;22.60;;
16101;SDS011;56411;52.964;10.540;2022-11-18T10:26:00;41.17;;;22.80;;
16101;SDS011;56411;52.964;10.540;2022-11-18T10:28:28;38.10;;;21.67;;
16101;SDS011;56411;52.964;10.540;2022-11-18T10:31:02;40.63;;;21.97;;
16101;SDS011;56411;52.964;10.540;2022-11-18T10:33:30;41.37;;;22.73;;
16101;SDS011;56411;52.964;10.540;2022-11-18T10:36:07;41.10;;;21.20;;
16101;SDS011;56411;52.964;10.540;2022-11-18T10:38:38;36.43;;;20.70;;
16101;SDS011;56411;52.964;10.540;2022-11-18T10:41:07;39.10;;;21.83;;
16101;SDS011;56411;52.964;10.540;2022-11-18T10:43:41;40.57;;;21.13;;
16101;SDS011;56411;52.964;10.540;2022-11-18T10:46:15;40.03;;;21.93;;
16101;SDS011;56411;52.964;10.540;2022-11-18T10:48:45;39.30;;;21.10;;
16101;SDS011;56411;52.964;10.540;2022-11-18T10:51:19;37.80;;;21.43;;
16101;SDS011;56411;52.964;10.540;2022-11-18T10:53:49;37.87;;;22.20;;
16101;SDS011;56411;52.964;10.540;2022-11-18T10:56:16;41.60;;;23.23;;
16101;SDS011;56411;52.964;10.540;2022-11-18T10:58:44;40.60;;;22.07;;
16101;SDS011;56411;52.964;10.540;2022-11-18T11:01:18;40.70;;;21.43;;
16101;SDS011;56411;52.964;10.540;2022-11-18T11:03:55;38.73;;;21.30;;
16101;SDS011;56411;52.964;10.540;2022-11-18T11:06:29;39.33;;;21.37;;
16101;SDS011;56411;52.964;10.540;2022-11-18T11:09:24;40.27;;;22.60;;
16101;SDS011;56411;52.964;10.540;2022-11-18T11:11:58;40.57;;;21.77;;
16101;SDS011;56411;52.964;10.540;2022-11-18T11:14:30;38.40;;;21.57;;
16101;SDS011;56411;52.964;10.540;2022-11-18T11:17:04;40.00;;;21.83;;
16101;SDS011;56411;52.964;10.540;2022-11-18T11:19:47;39.57;;;21.73;;
16101;SDS011;56411;52.964;10.540;2022-11-18T11:22:17;34.30;;;19.63;;
16101;SDS011;56411;52.964;10.540;2022-11-18T11:24:47;38.73;;;20.43;;
16101;SDS011;56411;52.964;10.540;2022-11-18T11:27:27;38.47;;;21.93;;
16101;SDS011;56411;52.964;10.540;2022-11-18T11:30:18;38.30;;;21.40;;
16101;SDS011;56411;52.964;10.540;2022-11-18T11:33:02;39.83;;;22.03;;
16101;SDS011;56411;52.964;10.540;2022-11-18T11:35:46;41.07;;;22.03;;
16101;SDS011;56411;52.964;10.540;2022-11-18T11:38:20;39.43;;;21.03;;
16101;SDS011;56411;52.964;10.540;2022-11-18T11:40:59;39.73;;;21.17;;
16101;SDS011;56411;52.964;10.540;2022-11-18T11:43:39;34.20;;;19.73;;
16101;SDS011;56411;52.964;10.540;2022-11-18T11:46:21;36.93;;;20.13;;
16101;SDS011;56411;52.964;10.540;2022-11-18T11:49:00;37.83;;;21.23;;
16101;SDS011;56411;52.964;10.540;2022-11-18T11:51:43;38.70;;;21.53;;
16101;SDS011;56411;52.964;10.540;2022-11-18T11:54:21;37.67;;;20.70;;
16101;SDS011;56411;52.964;10.540;2022-11-18T11:57:02;36.33;;;19.90;;
16101;SDS011;56411;52.964;10.540;2022-11-18T11:59:36;36.27;;;20.57;;
16101;SDS011;56411;52.964;10.540;2022-11-18T12:05:03;35.30;;;19.63;;
16101;SDS011;56411;52.964;10.540;2022-11-18T12:07:41;35.07;;;19.67;;
16101;SDS011;56411;52.964;10.540;2022-11-18T12:16:19;30.57;;;16.90;;
16101;SDS011;56411;52.964;10.540;2022-11-18T12:18:52;29.77;;;17.37;;
16101;SDS011;56411;52.964;10.540;2022-11-18T12:27:11;30.40;;;17.33;;
16101;SDS011;56411;52.964;10.540;2022-11-18T12:29:43;30.73;;;16.77;;
16101;SDS011;56411;52.964;10.540;2022-11-18T12:32:30;30.03;;;16.73;;
16101;SDS011;56411;52.964;10.540;2022-11-18T12:35:20;26.97;;;15.70;;
16101;SDS011;56411;52.964;10.540;2022-11-18T12:38:01;27.70;;;14.80;;
16101;SDS011;56411;52.964;10.540;2022-11-18T12:40:39;25.37;;;15.13;;
16101;SDS011;56411;52.964;10.540;2022-11-18T12:55:12;27.50;;;15.97;;
16101;SDS011;56411;52.964;10.540;2022-11-18T12:57:42;25.97;;;15.27;;
16101;SDS011;56411;52.964;10.540;2022-11-18T13:00:16;27.50;;;15.37;;
16101;SDS011;56411;52.964;10.540;2022-11-18T13:02:56;27.07;;;15.87;;
16101;SDS011;56411;52.964;10.540;2022-11-18T13:05:24;26.13;;;15.27;;
16101;SDS011;56411;52.964;10.540;2022-11-18T13:08:01;26.73;;;15.30;;
16101;SDS011;56411;52.964;10.540;2022-11-18T13:10:39;28.00;;;15.47;;
16101;SDS011;56411;52.964;10.540;2022-11-18T13:13:12;25.37;;;14.53;;
16101;SDS011;56411;52.964;10.540;2022-11-18T13:15:48;25.60;;;15.10;;
16101;SDS011;56411;52.964;10.540;2022-11-18T13:18:40;28.90;;;16.43;;
16101;SDS011;56411;52.964;10.540;2022-11-18T13:21:19;26.77;;;15.33;;
16101;SDS011;56411;52.964;10.540;2022-11-18T13:24:10;26.33;;;14.90;;
16101;SDS011;56411;52.964;10.540;2022-11-18T13:26:39;26.63;;;14.70;;
16101;SDS011;56411;52.964;10.540;2022-11-18T13:29:14;24.23;;;13.30;;
16101;SDS011;56411;52.964;10.540;2022-11-18T13:31:53;25.13;;;13.53;;
16101;SDS011;56411;52.964;10.540;2022-11-18T13:34:30;25.43;;;13.37;;
16101;SDS011;56411;52.964;10.540;2022-11-18T13:37:11;22.77;;;13.20;;
16101;SDS011;56411;52.964;10.540;2022-11-18T13:39:43;24.97;;;14.07;;
16101;SDS011;56411;52.964;10.540;2022-11-18T13:42:14;24.73;;;14.10;;
16101;SDS011;56411;52.964;10.540;2022-11-18T13:44:45;25.33;;;14.33;;
16101;SDS011;56411;52.964;10.540;2022-11-18T13:47:19;25.57;;;13.97;;
16101;SDS011;56411;52.964;10.540;2022-11-18T13:50:06;24.63;;;14.53;;
16101;SDS011;56411;52.964;10.540;2022-11-18T13:52:42;23.83;;;13.70;;
16101;SDS011;56411;52.964;10.540;2022-11-18T13:55:14;24.07;;;13.63;;
16101;SDS011;56411;52.964;10.540;2022-11-18T13:57:46;22.90;;;13.07;;
16101;SDS011;56411;52.964;10.540;2022-11-18T14:00:19;21.93;;;12.50;;
16101;SDS011;56411;52.964;10.540;2022-11-18T14:02:51;23.60;;;12.53;;
16101;SDS011;56411;52.964;10.540;2022-11-18T14:05:25;22.53;;;13.20;;
16101;SDS011;56411;52.964;10.540;2022-11-18T14:08:01;21.57;;;11.80;;
16101;SDS011;56411;52.964;10.540;2022-11-18T14:10:41;19.57;;;11.57;;
16101;SDS011;56411;52.964;10.540;2022-11-18T14:13:17;21.23;;;12.43;;
16101;SDS011;56411;52.964;10.540;2022-11-18T14:15:57;20.83;;;11.53;;
16101;SDS011;56411;52.964;10.540;2022-11-18T14:18:28;20.00;;;11.10;;
16101;SDS011;56411;52.964;10.540;2022-11-18T14:21:00;19.23;;;10.97;;
16101;SDS011;56411;52.964;10.540;2022-11-18T14:23:29;18.77;;;10.37;;
16101;SDS011;56411;52.964;10.540;2022-11-18T14:25:59;18.13;;;10.33;;
16101;SDS011;56411;52.964;10.540;2022-11-18T14:28:28;17.70;;;10.37;;
16101;SDS011;56411;52.964;10.540;2022-11-18T14:31:02;19.00;;;10.60;;
16101;SDS011;56411;52.964;10.540;2022-11-18T14:33:31;19.17;;;9.87;;
16101;SDS011;56411;52.964;10.540;2022-11-18T14:36:07;17.07;;;9.70;;
16101;SDS011;56411;52.964;10.540;2022-11-18T14:38:41;17.10;;;9.57;;
16101;SDS011;56411;52.964;10.540;2022-11-18T14:41:11;17.20;;;9.77;;
16101;SDS011;56411;52.964;10.540;2022-11-18T14:43:40;18.50;;;9.83;;
16101;SDS011;56411;52.964;10.540;2022-11-18T14:46:11;16.67;;;9.80;;
16101;SDS011;56411;52.964;10.540;2022-11-18T14:48:42;17.27;;;9.30;;
16101;SDS011;56411;52.964;10.540;2022-11-18T14:51:12;18.43;;;9.77;;
16101;SDS011;56411;52.964;10.540;2022-11-18T14:53:41;16.53;;;9.40;;
16101;SDS011;56411;52.964;10.540;2022-11-18T14:56:11;18.37;;;9.90;;
16101;SDS011;56411;52.964;10.540;2022-11-18T14:58:42;16.83;;;9.60;;
16101;SDS011;56411;52.964;10.540;2022-11-18T15:01:09;19.73;;;9.70;;
16101;SDS011;56411;52.964;10.540;2022-11-18T15:03:37;17.17;;;9.20;;
16101;SDS011;56411;52.964;10.540;2022-11-18T15:06:08;16.10;;;9.13;;